Minerva Libra — SVAA7 — position and weather

sailwx.info

Track history (hours):
 
Tides and Currents Weather Stations Pressure Air Temp Water Temp Dewpoint Dewpoint Depression Visibility Wind Speed Wind Dir Waves Ship Positions

Minerva Libra

Last reported at 2015-Apr-01 06:24 UTC. Time now 2015-Apr-02 00:11 UTC.
Position N 59°58' E 026°60'.

Length 250 m; draft 8 m.

Type: Tanker. MMSI: 240766000.

Date/timePositionNaut miles runAvg speedWind from/ knotsBaromVisibWave heightAir tempDewpointWater temp
2015-Apr-01 06:24N 59°58' E 026°60'1012.1
2015-Apr-01 05:33N 59°59' E 026°40'11 9.1
2015-Apr-01 04:21N 59°56' E 026°19'9 9.0
2015-Apr-01 03:24N 59°54' E 026°02'8 9.0
2015-Apr-01 02:30N 59°52' E 025°47'32 9.2
2015-Mar-31 23:05N 59°45' E 024°45'8 9.1
2015-Mar-31 22:12N 59°44' E 024°30'6 8.8
2015-Mar-31 21:32N 59°42' E 024°19'13 8.8
2015-Mar-31 20:06N 59°38' E 023°55'8 9.2
2015-Mar-31 19:11N 59°35' E 023°39'6 8.8
2015-Mar-31 18:33N 59°33' E 023°29'11 9.2
2015-Mar-31 17:24N 59°30' E 023°09'340 8.7
2015-Mar-30 02:18N 55°36' E 015°29'9 8.7
2015-Mar-30 01:19N 55°33' E 015°15'7 8.7
2015-Mar-30 00:33N 55°30' E 015°04'9 9.1
2015-Mar-29 23:33N 55°26' E 014°50'9 8.8
2015-Mar-29 22:33N 55°21' E 014°37'9 9.2
2015-Mar-29 21:33N 55°14' E 014°26'10 9.1
2015-Mar-29 20:28N 55°07' E 014°15'8 9.0
2015-Mar-29 19:33N 55°01' E 014°05'9 9.1
2015-Mar-29 18:33N 54°58' E 013°50'9 9.1
2015-Mar-29 17:33N 54°55' E 013°35'9 9.3
2015-Mar-29 16:33N 54°52' E 013°20'9 9.2
2015-Mar-29 15:32N 54°49' E 013°04'9 9.4
2015-Mar-29 14:33N 54°46' E 012°49'9 9.4
2015-Mar-29 13:33N 54°41' E 012°35'9 9.4
2015-Mar-29 12:33N 54°36' E 012°22'9 9.2
2015-Mar-29 11:33N 54°28' E 012°13'9 8.5
2015-Mar-29 10:33N 54°25' E 011°60'9 9.3
2015-Mar-29 09:33N 54°25' E 011°44'9 9.0
2015-Mar-29 08:33N 54°29' E 011°30'9 9.2
2015-Mar-29 07:33N 54°34' E 011°16'10 9.9
2015-Mar-29 06:33N 54°38' E 011°01'113 8.1
2015-Mar-28 16:33N 56°31' E 011°20'9 8.8
2015-Mar-28 15:33N 56°37' E 011°33'9 8.7
2015-Mar-28 14:33N 56°42' E 011°45'8 7.6
2015-Mar-28 13:33N 56°49' E 011°49'9 8.9
2015-Mar-28 12:33N 56°58' E 011°44'9 9.1
2015-Mar-28 11:33N 57°06' E 011°38'9 8.9
2015-Mar-28 10:33N 57°15' E 011°32'9 8.7
2015-Mar-28 09:33N 57°23' E 011°26'9 8.7
2015-Mar-28 08:33N 57°30' E 011°18'8 8.4
2015-Mar-28 07:33N 57°36' E 011°07'9 8.7
2015-Mar-28 06:33N 57°42' E 010°55'9 8.9
2015-Mar-28 05:33N 57°46' E 010°40'1010.1
2015-Mar-28 04:33N 57°46' E 010°21'1010.2
2015-Mar-28 03:33N 57°44' E 010°03'262 9.6
2015-Mar-27 00:15N 54°21' E 005°08'7 9.7
2015-Mar-26 23:33N 54°15' E 005°03'11 9.8
2015-Mar-26 22:28N 54°06' E 004°53'9 9.9
2015-Mar-26 21:33N 53°59' E 004°43'119 8.4
2015-Mar-26 07:22N 52°06' E 003°39'7 8.5
2015-Mar-26 06:33N 52°04' E 003°49'8 8.2
2015-Mar-26 05:33N 52°00' E 004°01'8 8.0
2015-Mar-26 04:33N 51°56' E 004°12'0 0.3
2015-Mar-26 03:33N 51°55' E 004°12'0 0.0
2015-Mar-26 02:33N 51°55' E 004°12'0 0.0
2015-Mar-26 01:31N 51°55' E 004°12'0 0.0
2015-Mar-26 00:33N 51°55' E 004°12'0 0.0
2015-Mar-25 23:33N 51°55' E 004°12'0 0.0
2015-Mar-25 22:33N 51°55' E 004°12'0 0.0
2015-Mar-25 21:33N 51°55' E 004°12'0 0.0
2015-Mar-25 20:33N 51°55' E 004°12'0 0.0
2015-Mar-25 19:30N 51°55' E 004°12'0 0.0
2015-Mar-25 18:33N 51°55' E 004°12'0 0.0
2015-Mar-25 17:33N 51°55' E 004°12'0 0.0
2015-Mar-25 16:33N 51°55' E 004°12'0 0.0
2015-Mar-25 15:33N 51°55' E 004°12'0 0.0
2015-Mar-25 14:30N 51°55' E 004°12'0 0.0
2015-Mar-25 13:33N 51°55' E 004°12'0 0.0
2015-Mar-25 12:33N 51°55' E 004°12'0 0.0
2015-Mar-25 11:33N 51°55' E 004°12'0 0.0
2015-Mar-25 10:30N 51°55' E 004°12'0 0.0
2015-Mar-25 09:33N 51°55' E 004°12'1 0.9
2015-Mar-25 08:33N 51°56' E 004°12'0 0.0
2015-Mar-25 07:32N 51°56' E 004°12'0 0.0
2015-Mar-25 06:32N 51°56' E 004°12'0 0.0
2015-Mar-25 05:32N 51°56' E 004°12'0 0.0
2015-Mar-25 04:32N 51°56' E 004°12'0 0.0
2015-Mar-25 03:29N 51°56' E 004°12'0 0.0
2015-Mar-25 02:32N 51°56' E 004°12'0 0.0
2015-Mar-25 01:32N 51°56' E 004°12'0 0.0
2015-Mar-25 00:32N 51°56' E 004°12'0 0.0
2015-Mar-24 23:32N 51°56' E 004°12'0 0.0
2015-Mar-24 22:32N 51°56' E 004°12'0 0.0
2015-Mar-24 21:29N 51°56' E 004°12'0 0.0
2015-Mar-24 20:32N 51°56' E 004°12'0 0.0
2015-Mar-24 19:32N 51°56' E 004°12'0 0.0
2015-Mar-24 18:32N 51°56' E 004°12'0 0.0
2015-Mar-24 17:32N 51°56' E 004°12'0 0.0
2015-Mar-24 16:29N 51°56' E 004°12'0 0.0
2015-Mar-24 15:32N 51°56' E 004°12'0 0.0
2015-Mar-24 14:32N 51°56' E 004°12'0 0.0
2015-Mar-24 13:29N 51°56' E 004°12'0 0.0
2015-Mar-24 12:32N 51°56' E 004°12'0 0.0
2015-Mar-24 11:29N 51°56' E 004°12'0 0.0
2015-Mar-24 10:32N 51°56' E 004°12'0 0.0
2015-Mar-24 09:29N 51°56' E 004°12'0 0.0
2015-Mar-24 08:32N 51°56' E 004°12'0 0.0
2015-Mar-24 07:29N 51°56' E 004°12'0 0.0
2015-Mar-24 06:29N 51°56' E 004°12'0 0.0
2015-Mar-24 05:29N 51°56' E 004°12'0 0.0
2015-Mar-24 04:32N 51°56' E 004°12'0 0.0
2015-Mar-24 03:26N 51°56' E 004°12'0 0.0
2015-Mar-24 02:29N 51°56' E 004°12'0 0.0
2015-Mar-24 01:32N 51°56' E 004°12'0 0.0
2015-Mar-24 00:32N 51°56' E 004°12'0 0.0
2015-Mar-23 23:32N 51°56' E 004°12'0 0.0
2015-Mar-23 22:32N 51°56' E 004°12'0 0.0
2015-Mar-23 21:32N 51°56' E 004°12'0 0.0
2015-Mar-23 20:32N 51°56' E 004°12'0 0.0
2015-Mar-23 19:32N 51°56' E 004°12'0 0.0
2015-Mar-23 18:32N 51°56' E 004°12'0 0.0
2015-Mar-23 17:32N 51°56' E 004°12'0 0.0
2015-Mar-23 16:32N 51°56' E 004°12'0 0.0
2015-Mar-23 15:32N 51°56' E 004°12'0 0.0
2015-Mar-23 14:32N 51°56' E 004°12'0 0.0
2015-Mar-23 13:32N 51°56' E 004°12'0 0.0
2015-Mar-23 12:32N 51°56' E 004°12'0 0.0
2015-Mar-23 11:32N 51°56' E 004°12'0 0.0
2015-Mar-23 10:32N 51°56' E 004°12'0 0.0
2015-Mar-23 09:32N 51°56' E 004°12'0 0.0
2015-Mar-23 08:32N 51°56' E 004°12'0 0.0
2015-Mar-23 07:32N 51°56' E 004°12'0 0.0
2015-Mar-23 06:32N 51°56' E 004°12'0 0.0
2015-Mar-23 05:29N 51°56' E 004°12'0 0.0
2015-Mar-23 04:32N 51°56' E 004°12'0 0.0
2015-Mar-23 03:32N 51°56' E 004°12'0 0.0
2015-Mar-23 02:29N 51°56' E 004°12'0 0.0
2015-Mar-23 01:29N 51°56' E 004°12'0 0.0
2015-Mar-23 00:32N 51°56' E 004°12'0 0.0
2015-Mar-22 23:32N 51°56' E 004°12'0 0.0
2015-Mar-22 22:32N 51°56' E 004°12'0 0.0
2015-Mar-22 21:32N 51°56' E 004°12'0 0.0
2015-Mar-22 20:32N 51°56' E 004°12'0 0.0
2015-Mar-22 19:32N 51°56' E 004°12'0 0.0
2015-Mar-22 18:32N 51°56' E 004°12'0 0.0
2015-Mar-22 17:32N 51°56' E 004°12'0 0.0
2015-Mar-22 16:32N 51°56' E 004°12'0 0.0
2015-Mar-22 15:29N 51°56' E 004°12'0 0.0
2015-Mar-22 14:32N 51°56' E 004°12'0 0.0
2015-Mar-22 13:26N 51°56' E 004°12'0 0.0
2015-Mar-22 12:32N 51°56' E 004°12'0 0.0
2015-Mar-22 11:32N 51°56' E 004°12'0 0.0
2015-Mar-22 10:32N 51°56' E 004°12'0 0.0
2015-Mar-22 09:32N 51°56' E 004°12'0 0.0
2015-Mar-22 08:32N 51°56' E 004°12'0 0.0
2015-Mar-22 07:32N 51°56' E 004°12'0 0.0
2015-Mar-22 06:32N 51°56' E 004°12'  
Track history (hours):
 
Tides and Currents Weather Stations Pressure Air Temp Water Temp Dewpoint Dewpoint Depression Visibility Wind Speed Wind Dir Waves Ship Positions

Minerva Libra

Last reported at 2015-Apr-01 06:24 UTC. Time now 2015-Apr-02 00:11 UTC.
Position N 59°58' E 026°60'.

Length 250 m; draft 8 m.

Type: Tanker. MMSI: 240766000.

Date/timePositionNaut miles runAvg speedWind from/ knotsBaromVisibWave heightAir tempDewpointWater temp
2015-Apr-01 06:24N 59°58' E 026°60'1012.1
2015-Apr-01 05:33N 59°59' E 026°40'11 9.1
2015-Apr-01 04:21N 59°56' E 026°19'9 9.0
2015-Apr-01 03:24N 59°54' E 026°02'8 9.0
2015-Apr-01 02:30N 59°52' E 025°47'32 9.2
2015-Mar-31 23:05N 59°45' E 024°45'8 9.1
2015-Mar-31 22:12N 59°44' E 024°30'6 8.8
2015-Mar-31 21:32N 59°42' E 024°19'13 8.8
2015-Mar-31 20:06N 59°38' E 023°55'8 9.2
2015-Mar-31 19:11N 59°35' E 023°39'6 8.8
2015-Mar-31 18:33N 59°33' E 023°29'11 9.2
2015-Mar-31 17:24N 59°30' E 023°09'340 8.7
2015-Mar-30 02:18N 55°36' E 015°29'9 8.7
2015-Mar-30 01:19N 55°33' E 015°15'7 8.7
2015-Mar-30 00:33N 55°30' E 015°04'9 9.1
2015-Mar-29 23:33N 55°26' E 014°50'9 8.8
2015-Mar-29 22:33N 55°21' E 014°37'9 9.2
2015-Mar-29 21:33N 55°14' E 014°26'10 9.1
2015-Mar-29 20:28N 55°07' E 014°15'8 9.0
2015-Mar-29 19:33N 55°01' E 014°05'9 9.1
2015-Mar-29 18:33N 54°58' E 013°50'9 9.1
2015-Mar-29 17:33N 54°55' E 013°35'9 9.3
2015-Mar-29 16:33N 54°52' E 013°20'9 9.2
2015-Mar-29 15:32N 54°49' E 013°04'9 9.4
2015-Mar-29 14:33N 54°46' E 012°49'9 9.4
2015-Mar-29 13:33N 54°41' E 012°35'9 9.4
2015-Mar-29 12:33N 54°36' E 012°22'9 9.2
2015-Mar-29 11:33N 54°28' E 012°13'9 8.5
2015-Mar-29 10:33N 54°25' E 011°60'9 9.3
2015-Mar-29 09:33N 54°25' E 011°44'9 9.0
2015-Mar-29 08:33N 54°29' E 011°30'9 9.2
2015-Mar-29 07:33N 54°34' E 011°16'10 9.9
2015-Mar-29 06:33N 54°38' E 011°01'113 8.1
2015-Mar-28 16:33N 56°31' E 011°20'9 8.8
2015-Mar-28 15:33N 56°37' E 011°33'9 8.7
2015-Mar-28 14:33N 56°42' E 011°45'8 7.6
2015-Mar-28 13:33N 56°49' E 011°49'9 8.9
2015-Mar-28 12:33N 56°58' E 011°44'9 9.1
2015-Mar-28 11:33N 57°06' E 011°38'9 8.9
2015-Mar-28 10:33N 57°15' E 011°32'9 8.7
2015-Mar-28 09:33N 57°23' E 011°26'9 8.7
2015-Mar-28 08:33N 57°30' E 011°18'8 8.4
2015-Mar-28 07:33N 57°36' E 011°07'9 8.7
2015-Mar-28 06:33N 57°42' E 010°55'9 8.9
2015-Mar-28 05:33N 57°46' E 010°40'1010.1
2015-Mar-28 04:33N 57°46' E 010°21'1010.2
2015-Mar-28 03:33N 57°44' E 010°03'262 9.6
2015-Mar-27 00:15N 54°21' E 005°08'7 9.7
2015-Mar-26 23:33N 54°15' E 005°03'11 9.8
2015-Mar-26 22:28N 54°06' E 004°53'9 9.9
2015-Mar-26 21:33N 53°59' E 004°43'119 8.4
2015-Mar-26 07:22N 52°06' E 003°39'7 8.5
2015-Mar-26 06:33N 52°04' E 003°49'8 8.2
2015-Mar-26 05:33N 52°00' E 004°01'8 8.0
2015-Mar-26 04:33N 51°56' E 004°12'0 0.3
2015-Mar-26 03:33N 51°55' E 004°12'0 0.0
2015-Mar-26 02:33N 51°55' E 004°12'0 0.0
2015-Mar-26 01:31N 51°55' E 004°12'0 0.0
2015-Mar-26 00:33N 51°55' E 004°12'0 0.0
2015-Mar-25 23:33N 51°55' E 004°12'0 0.0
2015-Mar-25 22:33N 51°55' E 004°12'0 0.0
2015-Mar-25 21:33N 51°55' E 004°12'0 0.0
2015-Mar-25 20:33N 51°55' E 004°12'0 0.0
2015-Mar-25 19:30N 51°55' E 004°12'0 0.0
2015-Mar-25 18:33N 51°55' E 004°12'0 0.0
2015-Mar-25 17:33N 51°55' E 004°12'0 0.0
2015-Mar-25 16:33N 51°55' E 004°12'0 0.0
2015-Mar-25 15:33N 51°55' E 004°12'0 0.0
2015-Mar-25 14:30N 51°55' E 004°12'0 0.0
2015-Mar-25 13:33N 51°55' E 004°12'0 0.0
2015-Mar-25 12:33N 51°55' E 004°12'0 0.0
2015-Mar-25 11:33N 51°55' E 004°12'0 0.0
2015-Mar-25 10:30N 51°55' E 004°12'0 0.0
2015-Mar-25 09:33N 51°55' E 004°12'1 0.9
2015-Mar-25 08:33N 51°56' E 004°12'0 0.0
2015-Mar-25 07:32N 51°56' E 004°12'0 0.0
2015-Mar-25 06:32N 51°56' E 004°12'0 0.0
2015-Mar-25 05:32N 51°56' E 004°12'0 0.0
2015-Mar-25 04:32N 51°56' E 004°12'0 0.0
2015-Mar-25 03:29N 51°56' E 004°12'0 0.0
2015-Mar-25 02:32N 51°56' E 004°12'0 0.0
2015-Mar-25 01:32N 51°56' E 004°12'0 0.0
2015-Mar-25 00:32N 51°56' E 004°12'0 0.0
2015-Mar-24 23:32N 51°56' E 004°12'0 0.0
2015-Mar-24 22:32N 51°56' E 004°12'0 0.0
2015-Mar-24 21:29N 51°56' E 004°12'0 0.0
2015-Mar-24 20:32N 51°56' E 004°12'0 0.0
2015-Mar-24 19:32N 51°56' E 004°12'0 0.0
2015-Mar-24 18:32N 51°56' E 004°12'0 0.0
2015-Mar-24 17:32N 51°56' E 004°12'0 0.0
2015-Mar-24 16:29N 51°56' E 004°12'0 0.0
2015-Mar-24 15:32N 51°56' E 004°12'0 0.0
2015-Mar-24 14:32N 51°56' E 004°12'0 0.0
2015-Mar-24 13:29N 51°56' E 004°12'0 0.0
2015-Mar-24 12:32N 51°56' E 004°12'0 0.0
2015-Mar-24 11:29N 51°56' E 004°12'0 0.0
2015-Mar-24 10:32N 51°56' E 004°12'0 0.0
2015-Mar-24 09:29N 51°56' E 004°12'0 0.0
2015-Mar-24 08:32N 51°56' E 004°12'0 0.0
2015-Mar-24 07:29N 51°56' E 004°12'0 0.0
2015-Mar-24 06:29N 51°56' E 004°12'0 0.0
2015-Mar-24 05:29N 51°56' E 004°12'0 0.0
2015-Mar-24 04:32N 51°56' E 004°12'0 0.0
2015-Mar-24 03:26N 51°56' E 004°12'0 0.0
2015-Mar-24 02:29N 51°56' E 004°12'0 0.0
2015-Mar-24 01:32N 51°56' E 004°12'0 0.0
2015-Mar-24 00:32N 51°56' E 004°12'0 0.0
2015-Mar-23 23:32N 51°56' E 004°12'0 0.0
2015-Mar-23 22:32N 51°56' E 004°12'0 0.0
2015-Mar-23 21:32N 51°56' E 004°12'0 0.0
2015-Mar-23 20:32N 51°56' E 004°12'0 0.0
2015-Mar-23 19:32N 51°56' E 004°12'0 0.0
2015-Mar-23 18:32N 51°56' E 004°12'0 0.0
2015-Mar-23 17:32N 51°56' E 004°12'0 0.0
2015-Mar-23 16:32N 51°56' E 004°12'0 0.0
2015-Mar-23 15:32N 51°56' E 004°12'0 0.0
2015-Mar-23 14:32N 51°56' E 004°12'0 0.0
2015-Mar-23 13:32N 51°56' E 004°12'0 0.0
2015-Mar-23 12:32N 51°56' E 004°12'0 0.0
2015-Mar-23 11:32N 51°56' E 004°12'0 0.0
2015-Mar-23 10:32N 51°56' E 004°12'0 0.0
2015-Mar-23 09:32N 51°56' E 004°12'0 0.0
2015-Mar-23 08:32N 51°56' E 004°12'0 0.0
2015-Mar-23 07:32N 51°56' E 004°12'0 0.0
2015-Mar-23 06:32N 51°56' E 004°12'0 0.0
2015-Mar-23 05:29N 51°56' E 004°12'0 0.0
2015-Mar-23 04:32N 51°56' E 004°12'0 0.0
2015-Mar-23 03:32N 51°56' E 004°12'0 0.0
2015-Mar-23 02:29N 51°56' E 004°12'0 0.0
2015-Mar-23 01:29N 51°56' E 004°12'0 0.0
2015-Mar-23 00:32N 51°56' E 004°12'0 0.0
2015-Mar-22 23:32N 51°56' E 004°12'0 0.0
2015-Mar-22 22:32N 51°56' E 004°12'0 0.0
2015-Mar-22 21:32N 51°56' E 004°12'0 0.0
2015-Mar-22 20:32N 51°56' E 004°12'0 0.0
2015-Mar-22 19:32N 51°56' E 004°12'0 0.0
2015-Mar-22 18:32N 51°56' E 004°12'0 0.0
2015-Mar-22 17:32N 51°56' E 004°12'0 0.0
2015-Mar-22 16:32N 51°56' E 004°12'0 0.0
2015-Mar-22 15:29N 51°56' E 004°12'0 0.0
2015-Mar-22 14:32N 51°56' E 004°12'0 0.0
2015-Mar-22 13:26N 51°56' E 004°12'0 0.0
2015-Mar-22 12:32N 51°56' E 004°12'0 0.0
2015-Mar-22 11:32N 51°56' E 004°12'0 0.0
2015-Mar-22 10:32N 51°56' E 004°12'0 0.0
2015-Mar-22 09:32N 51°56' E 004°12'0 0.0
2015-Mar-22 08:32N 51°56' E 004°12'0 0.0
2015-Mar-22 07:32N 51°56' E 004°12'0 0.0
2015-Mar-22 06:32N 51°56' E 004°12'  

Dump ship's entire track history